Voitsberg, Austria
Current Conditions -  °F | °C
As of 4:20 AM on Saturday 29 Nov 2014 (Local Time) from LOWG Reporting Station
Haze Haze  
Wind Chill: 36°   Ceiling: 200
Heat Index: 36°   Visibility: 1.9mi
Dew Point: 36°   Wind: 0mph
Humidity: 100%   Direction: NA
Pressure: 30.06"   Gusts: NA
Location:  47.04°N, 15.15°E
Report Text: LOWG 290220Z AUTO 00000KT 3100 BR FEW001 BKN002 02/02 Q1018
Loading
Personal Weather Stations






























Interactive Weather Map New forecast layout! Learn more

10-Day Weather Forecast

Advertisements
Track Severe Weather on mobile